createdAt,value
2023-05-05T00:03:42.825Z,6.36
2023-05-05T00:07:45.145Z,6.37
2023-05-05T00:11:47.414Z,6.44
2023-05-05T00:15:51.229Z,6.50
2023-05-05T00:19:53.562Z,6.45
2023-05-05T00:23:55.944Z,6.47
2023-05-05T00:27:58.029Z,6.56
2023-05-05T00:32:00.120Z,6.37
2023-05-05T00:36:02.560Z,6.32
2023-05-05T00:40:05.774Z,6.50
2023-05-05T00:44:08.264Z,6.46
2023-05-05T00:48:10.362Z,6.24
2023-05-05T00:52:12.984Z,6.29
2023-05-05T00:56:17.340Z,6.21
2023-05-05T01:00:19.671Z,6.17
2023-05-05T01:04:21.618Z,6.18
2023-05-05T01:08:38.345Z,6.26
2023-05-05T01:13:18.602Z,6.52
2023-05-05T01:17:28.885Z,6.31
2023-05-05T01:21:40.329Z,6.31
2023-05-05T01:26:07.702Z,6.37
2023-05-05T01:30:50.002Z,6.24
2023-05-05T01:35:15.228Z,6.19
2023-05-05T01:39:19.128Z,6.15
2023-05-05T01:43:23.429Z,6.15
2023-05-05T01:47:26.726Z,6.19
2023-05-05T01:51:30.057Z,6.21
2023-05-05T01:55:33.483Z,6.34
2023-05-05T01:59:37.976Z,6.35
2023-05-05T02:03:42.013Z,6.59
2023-05-05T02:07:45.720Z,6.52
2023-05-05T02:11:48.626Z,6.45
2023-05-05T02:15:52.097Z,6.46
2023-05-05T02:19:55.766Z,6.38
2023-05-05T02:23:58.437Z,6.41
2023-05-05T02:28:02.499Z,6.50
2023-05-05T02:32:14.240Z,6.63
2023-05-05T02:36:25.983Z,6.56
2023-05-05T02:40:35.350Z,6.78
2023-05-05T02:44:42.516Z,6.69
2023-05-05T02:48:46.505Z,6.75
2023-05-05T02:52:48.958Z,6.93
2023-05-05T02:56:54.440Z,6.73
2023-05-05T03:01:15.113Z,6.82
2023-05-05T03:05:21.545Z,6.68
2023-05-05T03:09:47.452Z,6.80
2023-05-05T03:14:01.348Z,6.84
2023-05-05T03:18:04.459Z,6.79
2023-05-05T03:22:07.269Z,6.87
2023-05-05T03:26:09.759Z,6.98
2023-05-05T03:30:16.527Z,7.11
2023-05-05T03:34:23.997Z,7.13
2023-05-05T03:38:26.569Z,7.23
2023-05-05T03:42:29.586Z,7.33
2023-05-05T03:46:31.708Z,7.42
2023-05-05T03:50:33.767Z,7.47
2023-05-05T03:54:36.034Z,7.55
2023-05-05T03:58:38.071Z,7.61
2023-05-05T04:02:40.172Z,7.67
2023-05-05T04:06:44.402Z,7.71
2023-05-05T04:10:47.804Z,7.78
2023-05-05T04:14:50.630Z,7.79
2023-05-05T04:18:52.931Z,7.86
2023-05-05T04:22:55.284Z,7.96
2023-05-05T04:26:58.132Z,8.12
2023-05-05T04:31:01.236Z,8.36
2023-05-05T04:35:06.292Z,8.58
2023-05-05T04:39:08.684Z,8.69
2023-05-05T04:43:11.411Z,8.77
2023-05-05T04:47:14.778Z,9.05
2023-05-05T04:51:17.727Z,9.24
2023-05-05T04:55:20.000Z,9.32
2023-05-05T04:59:22.027Z,9.59
2023-05-05T05:03:24.951Z,9.78
2023-05-05T05:07:27.214Z,10.00
2023-05-05T05:11:29.472Z,10.21
2023-05-05T05:15:31.538Z,10.44
2023-05-05T05:19:33.765Z,10.70
2023-05-05T05:23:36.088Z,10.84
2023-05-05T05:27:38.420Z,11.11
2023-05-05T05:31:40.691Z,11.35
2023-05-05T05:35:42.989Z,11.65
2023-05-05T05:39:51.390Z,11.80
2023-05-05T05:43:54.012Z,11.78
2023-05-05T05:47:56.816Z,11.77
2023-05-05T05:51:58.851Z,11.73
2023-05-05T05:56:01.543Z,11.75
2023-05-05T06:00:05.063Z,12.04
2023-05-05T06:04:13.802Z,12.34
2023-05-05T06:08:16.331Z,12.56
2023-05-05T06:12:22.872Z,12.74
2023-05-05T06:16:25.213Z,12.93
2023-05-05T06:20:27.780Z,12.92
2023-05-05T06:24:32.055Z,13.07
2023-05-05T06:28:35.287Z,13.42
2023-05-05T06:32:37.493Z,13.77
2023-05-05T06:36:39.639Z,14.02
2023-05-05T06:40:42.101Z,14.33
2023-05-05T06:44:44.192Z,14.69
2023-05-05T06:48:46.132Z,14.91
2023-05-05T06:52:48.222Z,14.97
2023-05-05T06:56:50.387Z,14.99
2023-05-05T07:00:52.534Z,15.18
2023-05-05T07:04:55.491Z,15.41
2023-05-05T07:08:58.023Z,15.32
2023-05-05T07:13:00.186Z,15.43
2023-05-05T07:17:02.217Z,15.46
2023-05-05T07:21:06.565Z,15.08
2023-05-05T07:25:08.723Z,15.26
2023-05-05T07:29:10.711Z,15.44
2023-05-05T07:33:12.790Z,15.57
2023-05-05T07:37:14.860Z,15.67
2023-05-05T07:41:18.427Z,15.92
2023-05-05T07:45:20.857Z,16.04
2023-05-05T07:49:22.862Z,15.91
2023-05-05T07:53:24.933Z,16.15
2023-05-05T07:57:26.969Z,16.29
2023-05-05T08:01:29.303Z,16.25
2023-05-05T08:05:31.258Z,16.32
2023-05-05T08:09:33.307Z,16.00
2023-05-05T08:13:35.507Z,16.00
2023-05-05T08:17:51.758Z,15.98
2023-05-05T08:21:53.874Z,15.93
2023-05-05T08:25:56.004Z,16.12
2023-05-05T08:29:58.285Z,16.13
2023-05-05T08:34:00.278Z,16.27
2023-05-05T08:38:02.401Z,15.77
2023-05-05T08:42:04.841Z,15.83
2023-05-05T08:46:11.284Z,16.09
2023-05-05T08:50:14.013Z,16.20
2023-05-05T08:54:19.811Z,16.78
2023-05-05T08:58:26.932Z,16.95
2023-05-05T09:02:31.479Z,17.06
2023-05-05T09:06:34.346Z,17.21
2023-05-05T09:10:40.010Z,17.23
2023-05-05T09:14:42.040Z,16.93
2023-05-05T09:18:45.492Z,16.90
2023-05-05T09:22:48.148Z,16.64
2023-05-05T09:26:50.603Z,16.52
2023-05-05T09:30:52.779Z,16.44
2023-05-05T09:34:59.736Z,16.82
2023-05-05T09:39:06.352Z,16.88
2023-05-05T09:43:08.551Z,17.27
2023-05-05T09:47:26.124Z,17.64
2023-05-05T09:51:31.784Z,17.59
2023-05-05T09:55:33.841Z,17.88
2023-05-05T09:59:36.046Z,17.55
2023-05-05T10:03:51.411Z,16.93
2023-05-05T10:07:53.483Z,16.85
2023-05-05T10:11:59.304Z,17.34
2023-05-05T10:16:03.828Z,17.05
2023-05-05T10:20:08.748Z,17.25
2023-05-05T10:24:34.609Z,17.39
2023-05-05T10:28:56.096Z,17.51
2023-05-05T10:33:31.196Z,17.11
2023-05-05T10:37:37.486Z,16.79
2023-05-05T10:41:39.736Z,17.15
2023-05-05T10:45:43.049Z,17.17
2023-05-05T10:49:57.183Z,16.85
2023-05-05T10:54:10.305Z,17.41
2023-05-05T10:58:31.697Z,17.50
2023-05-05T11:02:34.098Z,17.67
2023-05-05T11:06:36.287Z,17.40
2023-05-05T11:10:44.805Z,17.12
2023-05-05T11:14:46.896Z,17.05
2023-05-05T11:18:48.964Z,17.04
2023-05-05T11:23:03.427Z,16.37
2023-05-05T11:27:05.750Z,16.55
2023-05-05T11:31:07.769Z,16.36
2023-05-05T11:35:10.101Z,16.53
2023-05-05T11:39:33.116Z,16.47
2023-05-05T11:43:35.148Z,16.77
2023-05-05T11:47:38.549Z,16.65
2023-05-05T11:51:40.815Z,16.61
2023-05-05T11:55:42.918Z,16.59
2023-05-05T11:59:59.630Z,16.62
2023-05-05T12:04:02.222Z,16.88
2023-05-05T12:08:04.855Z,16.49
2023-05-05T12:12:07.404Z,16.91
2023-05-05T12:16:11.167Z,17.14
2023-05-05T12:20:13.546Z,17.46
2023-05-05T12:24:15.777Z,17.49
2023-05-05T12:28:17.773Z,17.22
2023-05-05T12:32:28.075Z,16.89
2023-05-05T12:36:30.821Z,16.80
2023-05-05T12:41:00.428Z,16.55
2023-05-05T12:45:02.084Z,15.98
2023-05-05T12:49:07.598Z,16.09
2023-05-05T12:53:09.918Z,16.89
2023-05-05T12:57:12.068Z,17.12
2023-05-05T13:01:14.120Z,17.10
2023-05-05T13:05:16.190Z,16.71
2023-05-05T13:09:26.426Z,16.36
2023-05-05T13:13:32.040Z,16.31
2023-05-05T13:17:34.889Z,16.42
2023-05-05T13:21:37.112Z,16.23
2023-05-05T13:25:39.138Z,16.23
2023-05-05T13:29:41.773Z,16.17
2023-05-05T13:33:43.837Z,15.97
2023-05-05T13:37:47.505Z,15.73
2023-05-05T13:41:49.593Z,15.89
2023-05-05T13:45:53.206Z,15.73
2023-05-05T13:49:56.186Z,15.98
2023-05-05T13:53:58.246Z,16.01
2023-05-05T13:58:00.252Z,16.04
2023-05-05T14:02:02.397Z,16.15
2023-05-05T14:06:04.717Z,16.02
2023-05-05T14:10:07.512Z,16.16
2023-05-05T14:14:09.602Z,16.57
2023-05-05T14:18:12.767Z,16.78
2023-05-05T14:22:14.746Z,17.23
2023-05-05T14:26:16.861Z,16.30
2023-05-05T14:30:19.009Z,15.62
2023-05-05T14:34:21.057Z,15.30
2023-05-05T14:38:23.128Z,15.17
2023-05-05T14:42:26.319Z,15.07
2023-05-05T14:46:28.395Z,15.59
2023-05-05T14:50:30.418Z,15.46
2023-05-05T14:54:32.519Z,15.48
2023-05-05T14:58:34.698Z,15.04
2023-05-05T15:02:36.810Z,14.85
2023-05-05T15:06:39.073Z,15.00
2023-05-05T15:10:41.206Z,14.76
2023-05-05T15:14:43.293Z,15.08
2023-05-05T15:18:45.432Z,15.31
2023-05-05T15:22:48.990Z,15.38
2023-05-05T15:26:51.565Z,15.17
2023-05-05T15:30:56.637Z,15.12
2023-05-05T15:34:58.666Z,15.13
2023-05-05T15:39:00.862Z,14.98
2023-05-05T15:43:02.897Z,15.23
2023-05-05T15:47:05.421Z,14.74
2023-05-05T15:51:07.617Z,14.52
2023-05-05T15:55:10.392Z,14.49
2023-05-05T15:59:12.562Z,14.34
2023-05-05T16:03:14.753Z,14.15
2023-05-05T16:07:17.230Z,14.21
2023-05-05T16:11:21.818Z,14.14
2023-05-05T16:15:24.388Z,14.12
2023-05-05T16:19:29.763Z,13.92
2023-05-05T16:23:31.923Z,13.72
2023-05-05T16:27:33.938Z,13.63
2023-05-05T16:31:36.101Z,13.48
2023-05-05T16:35:38.203Z,13.35
2023-05-05T16:39:41.157Z,13.23
2023-05-05T16:43:43.254Z,13.12
2023-05-05T16:47:45.284Z,12.98
2023-05-05T16:51:47.379Z,12.91
2023-05-05T16:55:53.431Z,12.78
2023-05-05T16:59:56.351Z,12.69
2023-05-05T17:04:02.314Z,12.52
2023-05-05T17:08:04.852Z,12.33
2023-05-05T17:12:07.133Z,12.19
2023-05-05T17:16:09.305Z,12.17
2023-05-05T17:20:12.055Z,12.15
2023-05-05T17:24:14.117Z,12.18
2023-05-05T17:28:17.454Z,12.09
2023-05-05T17:32:19.608Z,11.88
2023-05-05T17:36:21.558Z,11.86
2023-05-05T17:40:23.678Z,11.82
2023-05-05T17:44:25.762Z,11.65
2023-05-05T17:48:27.971Z,11.43
2023-05-05T17:52:30.010Z,11.45
2023-05-05T17:56:32.148Z,11.30
2023-05-05T18:00:34.150Z,11.27
2023-05-05T18:04:36.872Z,11.19
2023-05-05T18:08:38.892Z,11.12
2023-05-05T18:12:41.288Z,10.92
2023-05-05T18:16:48.665Z,10.73
2023-05-05T18:20:50.745Z,10.51
2023-05-05T18:24:58.832Z,10.31
2023-05-05T18:29:01.200Z,10.30
2023-05-05T18:33:03.297Z,10.13
2023-05-05T18:37:05.348Z,9.96
2023-05-05T18:41:07.343Z,9.79
2023-05-05T18:45:11.290Z,9.72
2023-05-05T18:49:13.486Z,9.72
2023-05-05T18:53:17.724Z,9.88
2023-05-05T18:57:19.759Z,9.77
2023-05-05T19:01:22.179Z,9.67
2023-05-05T19:05:24.569Z,9.59
2023-05-05T19:09:27.455Z,9.53
2023-05-05T19:13:29.408Z,9.46
2023-05-05T19:17:31.527Z,9.65
2023-05-05T19:21:33.731Z,9.63
2023-05-05T19:25:36.333Z,9.57
2023-05-05T19:29:39.140Z,9.50
2023-05-05T19:33:45.428Z,9.50
2023-05-05T19:37:47.665Z,9.57
2023-05-05T19:41:49.710Z,9.68
2023-05-05T19:45:51.772Z,9.82
2023-05-05T19:49:53.890Z,9.80
2023-05-05T19:53:55.862Z,9.84
2023-05-05T19:57:58.088Z,9.74
2023-05-05T20:02:00.700Z,9.76
2023-05-05T20:06:02.911Z,9.80
2023-05-05T20:10:05.525Z,9.70
2023-05-05T20:14:07.528Z,9.73
2023-05-05T20:18:09.479Z,9.74
2023-05-05T20:22:11.568Z,9.72
2023-05-05T20:26:13.779Z,9.77
2023-05-05T20:30:16.038Z,9.65
2023-05-05T20:34:18.144Z,9.56
2023-05-05T20:38:20.274Z,9.63
2023-05-05T20:42:23.024Z,9.70
2023-05-05T20:46:25.504Z,9.60
2023-05-05T20:50:27.512Z,9.50
2023-05-05T20:54:36.442Z,9.46
2023-05-05T20:58:38.600Z,9.43
2023-05-05T21:02:40.836Z,9.42
2023-05-05T21:06:42.864Z,9.20
2023-05-05T21:10:44.998Z,9.15
2023-05-05T21:14:46.979Z,9.27
2023-05-05T21:18:49.041Z,9.17
2023-05-05T21:22:51.144Z,9.34
2023-05-05T21:26:53.435Z,9.31
2023-05-05T21:31:19.588Z,9.33
2023-05-05T21:35:17.414Z,9.36
2023-05-05T21:39:19.428Z,9.32
2023-05-05T21:43:21.476Z,9.35
2023-05-05T21:47:23.583Z,9.38
2023-05-05T21:51:25.706Z,9.21
2023-05-05T21:55:27.697Z,9.19
2023-05-05T21:59:29.786Z,9.13
2023-05-05T22:03:31.860Z,9.06
2023-05-05T22:07:34.086Z,9.11
2023-05-05T22:11:36.541Z,8.94
2023-05-05T22:15:45.989Z,8.98
2023-05-05T22:19:48.972Z,9.01
2023-05-05T22:23:51.169Z,8.78
2023-05-05T22:27:53.123Z,8.82
2023-05-05T22:31:55.230Z,8.72
2023-05-05T22:35:57.344Z,8.62
2023-05-05T22:39:59.718Z,8.54
2023-05-05T22:44:01.795Z,8.35
2023-05-05T22:48:04.111Z,8.38
2023-05-05T22:52:06.154Z,8.28
2023-05-05T22:56:08.205Z,8.19
2023-05-05T23:00:10.776Z,8.09
2023-05-05T23:04:12.828Z,7.99
2023-05-05T23:08:14.951Z,7.78
2023-05-05T23:12:17.589Z,7.86
2023-05-05T23:16:19.220Z,7.87
2023-05-05T23:20:21.325Z,7.78
2023-05-05T23:24:23.422Z,7.85
2023-05-05T23:28:25.545Z,7.88
2023-05-05T23:32:27.599Z,7.88
2023-05-05T23:36:29.768Z,7.75
2023-05-05T23:40:31.972Z,7.83
2023-05-05T23:44:34.037Z,7.80
2023-05-05T23:48:36.058Z,7.53
2023-05-05T23:52:38.069Z,7.54
2023-05-05T23:56:41.067Z,7.51
